»·PEaware :: UAL935 KCOS-KDEN

UAL935 :: KCOS-KDEN

FLIGHT INFORMATION

Flight Status: Arrived
Operator:
United Airlines
More flights by this operator :: More flights under this callsign
Pilot: Michael S. (20314)
Aircraft: AIRBUS A321
(A321)
More flights by this aircraft type
Origin: KCOS City Of Colorado Springs Mun
United States
Destination: KDEN Denver Intl
United States
More flights between these airports :: More routes between these airports
Route: ADANE V389 LUFSE JEFEL
File this flight plan on PilotEdge
Remarks: RMK / SIMBRIEF
Altitude:
(Current/Filed)
12,000ft
Speed:
(Current/Filed)
358kts
Departed: 02-Mar-22 03:07 PM
Arrived: 02-Mar-22 03:29 PM
Distance/Time
Traveled:
63nm/0:22
Distance/Time
To Go:
Arrived

Flight Plot

Page will automatically refresh every two minutes.

Flight plan parsing failed; only flown route is shown


Map Options




Map Legend


Flown Route
Filed Route
Departure Airport
Arrival Airport
Navaid (VOR, NDB)
Fix

Horizontal Profiles

Position Reports

Time Latitude Longitude Heading Altitude Ground
Speed
02-Mar-22 14:38 38.797936 -104.701548 100 6196ft 0kts
02-Mar-22 14:39 38.797936 -104.701548 100 6196ft 0kts
02-Mar-22 14:40 38.797936 -104.701548 100 6196ft 0kts
02-Mar-22 14:41 38.797936 -104.701548 100 6196ft 0kts
02-Mar-22 14:42 38.797936 -104.701548 100 6196ft 0kts
02-Mar-22 14:43 38.797936 -104.701548 100 6196ft 0kts
02-Mar-22 14:44 38.797936 -104.701548 100 6196ft 0kts
02-Mar-22 14:45 38.797936 -104.701548 100 6196ft 0kts
02-Mar-22 14:46 38.797936 -104.701548 100 6196ft 0kts
02-Mar-22 14:47 38.797936 -104.701548 100 6196ft 0kts
02-Mar-22 14:48 38.797936 -104.701548 100 6196ft 0kts
02-Mar-22 14:49 38.797936 -104.701548 100 6196ft 0kts
02-Mar-22 14:50 38.797936 -104.701548 100 6196ft 0kts
02-Mar-22 14:51 38.797936 -104.701548 100 6196ft 0kts
02-Mar-22 14:52 38.797938 -104.701583 107 6196ft 1kts
02-Mar-22 14:53 38.798117 -104.702156 122 6196ft 2kts
02-Mar-22 14:54 38.798445 -104.702786 123 6196ft 1kts
02-Mar-22 14:55 38.798345 -104.702951 358 6196ft 0kts
02-Mar-22 14:56 38.798345 -104.702951 358 6196ft 0kts
02-Mar-22 14:57 38.799468 -104.702978 358 6196ft 6kts
02-Mar-22 14:58 38.801313 -104.700973 0 6196ft 12kts
02-Mar-22 14:59 38.803121 -104.699056 88 6196ft 13kts
02-Mar-22 15:00 38.803145 -104.692610 88 6196ft 20kts
02-Mar-22 15:01 38.803408 -104.687703 16 6196ft 9kts
02-Mar-22 15:02 38.807232 -104.687639 0 6196ft 18kts
02-Mar-22 15:03 38.812782 -104.687636 359 6196ft 19kts
02-Mar-22 15:04 38.815931 -104.687160 88 6196ft 0kts
02-Mar-22 15:05 38.815935 -104.687038 87 6196ft 6kts
02-Mar-22 15:06 38.804609 -104.685740 179 6196ft 140kts
02-Mar-22 15:07 38.754842 -104.686337 182 8043ft 186kts
02-Mar-22 15:08 38.698481 -104.686039 168 9111ft 226kts
02-Mar-22 15:09 38.682701 -104.610256 52 10241ft 293kts
02-Mar-22 15:10 38.745686 -104.529540 28 11733ft 343kts
02-Mar-22 15:11 38.827478 -104.468011 28 12025ft 341kts
02-Mar-22 15:12 38.908936 -104.407325 16 12029ft 337kts
02-Mar-22 15:13 38.992647 -104.395242 359 12020ft 291kts
02-Mar-22 15:14 39.073073 -104.391660 359 12019ft 292kts
02-Mar-22 15:15 39.154297 -104.387630 357 12030ft 288kts
02-Mar-22 15:16 39.219274 -104.437367 316 11212ft 280kts
02-Mar-22 15:17 39.278574 -104.504432 317 11087ft 283kts
02-Mar-22 15:18 39.337653 -104.571603 317 11085ft 284kts
02-Mar-22 15:19 39.408069 -104.611778 340 11078ft 263kts
02-Mar-22 15:20 39.473204 -104.638798 338 11081ft 228kts
02-Mar-22 15:21 39.538103 -104.663431 353 11000ft 251kts
02-Mar-22 15:22 39.605613 -104.663392 359 9808ft 233kts
02-Mar-22 15:23 39.667328 -104.662602 359 8620ft 211kts
02-Mar-22 15:24 39.721630 -104.661849 358 7560ft 175kts
02-Mar-22 15:25 39.766452 -104.661336 358 6675ft 155kts
02-Mar-22 15:26 39.809263 -104.660816 359 5870ft 153kts
02-Mar-22 15:27 39.846372 -104.660331 1 5443ft 92kts
02-Mar-22 15:28 39.856737 -104.661575 265 5443ft 14kts
02-Mar-22 15:29 39.860328 -104.662361 1 5443ft 13kts
02-Mar-22 15:30 39.860993 -104.665917 267 5443ft 12kts
02-Mar-22 15:31 39.860911 -104.671378 270 5443ft 16kts
02-Mar-22 15:32 39.859486 -104.672928 180 5443ft 4kts

Navigation Log

Ident Type
Flight plan parsing failed, navigation log unavailable